Time;durP1;ratioP1;P1;durP2;ratioP2;P2;SDS_P1;SDS_P2;PMS_P1;PMS_P2;Temp;Humidity;BMP_temperature;BMP_pressure;BME280_temperature;BME280_humidity;BME280_pressure;Samples;Min_cycle;Max_cycle;Signal;HPM_P1;HPM_P2
2022/05/31 00:01:08;;;;;;;1.53;0.80;;;;;;;;;;5012711;28;20203;-66
2022/05/31 00:03:36;;;;;;;0.70;0.70;;;;;;;;;;4997633;28;20299;-66
2022/05/31 00:06:08;;;;;;;1.00;1.00;;;;;;;;;;4995590;28;20220;-66
2022/05/31 00:08:45;;;;;;;0.77;0.77;;;;;;;;;;4995719;28;20271;-66
2022/05/31 00:11:15;;;;;;;1.17;0.70;;;;;;;;;;4995378;28;20205;-66
2022/05/31 00:13:45;;;;;;;1.03;0.77;;;;;;;;;;5005445;28;20643;-66
2022/05/31 00:16:16;;;;;;;0.97;0.70;;;;;;;;;;5006538;28;20199;-66
2022/05/31 00:18:48;;;;;;;1.50;1.00;;;;;;;;;;4991578;28;20208;-65
2022/05/31 00:21:19;;;;;;;0.80;0.80;;;;;;;;;;5001979;28;20195;-66
2022/05/31 00:23:49;;;;;;;2.10;1.03;;;;;;;;;;5001985;28;20541;-67
2022/05/31 00:26:22;;;;;;;1.27;1.03;;;;;;;;;;5002352;28;20515;-66
2022/05/31 00:28:52;;;;;;;1.07;0.73;;;;;;;;;;4994082;28;20223;-67
2022/05/31 00:31:23;;;;;;;1.67;0.83;;;;;;;;;;4987486;28;20213;-66
2022/05/31 00:33:53;;;;;;;1.33;0.97;;;;;;;;;;5002502;28;20208;-66
2022/05/31 00:36:23;;;;;;;1.43;1.00;;;;;;;;;;5007694;28;20206;-66
2022/05/31 00:38:54;;;;;;;0.73;0.70;;;;;;;;;;5002083;28;20275;-66
2022/05/31 00:41:26;;;;;;;1.20;1.10;;;;;;;;;;4995273;28;20211;-66
2022/05/31 00:44:03;;;;;;;1.93;0.77;;;;;;;;;;4996811;28;20202;-66
2022/05/31 00:46:45;;;;;;;1.30;0.80;;;;;;;;;;4987400;28;20200;-66
2022/05/31 00:49:26;;;;;;;1.97;0.87;;;;;;;;;;5005076;28;20199;-66
2022/05/31 00:51:56;;;;;;;1.03;0.80;;;;;;;;;;5000268;28;20200;-66
2022/05/31 00:54:28;;;;;;;2.97;1.00;;;;;;;;;;5003531;28;20216;-66
2022/05/31 00:57:01;;;;;;;1.23;1.00;;;;;;;;;;4992424;28;20192;-66
2022/05/31 00:59:38;;;;;;;1.17;0.67;;;;;;;;;;4999929;28;20222;-66
2022/05/31 01:02:11;;;;;;;1.00;0.90;;;;;;;;;;4992158;28;20285;-66
2022/05/31 01:04:44;;;;;;;0.67;0.67;;;;;;;;;;5006803;28;20207;-66
2022/05/31 01:07:14;;;;;;;0.80;0.80;;;;;;;;;;4970171;28;20219;-66
2022/05/31 01:09:43;;;;;;;1.23;0.90;;;;;;;;;;4998036;28;20190;-67
2022/05/31 01:12:15;;;;;;;1.10;0.80;;;;;;;;;;5000141;28;20216;-66
2022/05/31 01:14:45;;;;;;;1.50;1.10;;;;;;;;;;4997406;28;20191;-66
2022/05/31 01:17:16;;;;;;;1.23;0.90;;;;;;;;;;4986602;28;20207;-66
2022/05/31 01:19:58;;;;;;;1.00;0.90;;;;;;;;;;5005724;28;20199;-66
2022/05/31 01:22:50;;;;;;;1.97;0.90;;;;;;;;;;5005239;28;20207;-66
2022/05/31 01:25:23;;;;;;;0.80;0.80;;;;;;;;;;4993671;28;20223;-66
2022/05/31 01:28:11;;;;;;;1.17;1.07;;;;;;;;;;5006332;28;20551;-66
2022/05/31 01:30:45;;;;;;;0.70;0.70;;;;;;;;;;4997273;28;20202;-66
2022/05/31 01:33:23;;;;;;;1.00;0.90;;;;;;;;;;5002839;28;20226;-66
2022/05/31 01:35:55;;;;;;;1.00;1.00;;;;;;;;;;5003279;28;20804;-66
2022/05/31 01:38:26;;;;;;;1.77;1.00;;;;;;;;;;5003820;28;20650;-66
2022/05/31 01:41:06;;;;;;;1.10;0.80;;;;;;;;;;5005685;28;20222;-66
2022/05/31 01:43:40;;;;;;;2.07;0.90;;;;;;;;;;5001631;28;20223;-66
2022/05/31 01:46:11;;;;;;;1.10;0.80;;;;;;;;;;5004730;28;20207;-67
2022/05/31 01:48:43;;;;;;;1.37;0.70;;;;;;;;;;5002216;28;20226;-67
2022/05/31 01:51:16;;;;;;;0.70;0.63;;;;;;;;;;5000297;28;20241;-67
2022/05/31 01:53:59;;;;;;;0.83;0.83;;;;;;;;;;5002601;28;20278;-67
2022/05/31 01:56:31;;;;;;;1.40;1.00;;;;;;;;;;5002857;28;20220;-66
2022/05/31 01:59:03;;;;;;;1.00;0.70;;;;;;;;;;5006257;28;20218;-66
2022/05/31 02:01:34;;;;;;;1.33;0.93;;;;;;;;;;5006111;28;20242;-66
2022/05/31 02:04:01;;;;;;;0.80;0.80;;;;;;;;;;5005596;28;20196;-66
2022/05/31 02:06:33;;;;;;;1.00;0.73;;;;;;;;;;5006130;28;20822;-66
2022/05/31 02:09:01;;;;;;;0.97;0.83;;;;;;;;;;5007998;28;20669;-66
2022/05/31 02:11:29;;;;;;;1.10;1.00;;;;;;;;;;5007747;28;20250;-66
2022/05/31 02:13:58;;;;;;;1.20;0.70;;;;;;;;;;5008951;28;20203;-67
2022/05/31 02:16:26;;;;;;;1.00;0.70;;;;;;;;;;5001659;28;20858;-66
2022/05/31 02:21:40;;;;;;;0.80;0.80;;;;;;;;;;5008842;28;20203;-66
2022/05/31 02:24:08;;;;;;;1.30;1.20;;;;;;;;;;5004150;28;20281;-66
2022/05/31 02:26:36;;;;;;;1.63;0.73;;;;;;;;;;5004917;28;20223;-66
2022/05/31 02:29:03;;;;;;;1.43;1.00;;;;;;;;;;5002772;28;20223;-66
2022/05/31 02:31:31;;;;;;;1.13;0.90;;;;;;;;;;5002370;28;20204;-66
2022/05/31 02:33:58;;;;;;;1.00;0.90;;;;;;;;;;5001038;28;20188;-66
2022/05/31 02:36:26;;;;;;;1.33;1.23;;;;;;;;;;5008881;28;20188;-66
2022/05/31 02:38:53;;;;;;;1.30;1.10;;;;;;;;;;5002306;28;20231;-66
2022/05/31 02:41:20;;;;;;;0.80;0.80;;;;;;;;;;4998248;28;20250;-66
2022/05/31 02:43:48;;;;;;;1.60;1.20;;;;;;;;;;4997812;28;20272;-66
2022/05/31 02:46:15;;;;;;;1.30;1.10;;;;;;;;;;4995115;28;20204;-66
2022/05/31 02:48:43;;;;;;;0.80;0.80;;;;;;;;;;4998484;28;20311;-67
2022/05/31 02:51:10;;;;;;;1.70;1.10;;;;;;;;;;5005127;28;20637;-66
2022/05/31 02:53:37;;;;;;;1.07;0.97;;;;;;;;;;5006187;28;20215;-66
2022/05/31 02:56:05;;;;;;;1.37;1.03;;;;;;;;;;4997106;28;20618;-66
2022/05/31 02:58:32;;;;;;;1.37;1.10;;;;;;;;;;5006879;28;20261;-66
2022/05/31 03:01:00;;;;;;;0.93;0.93;;;;;;;;;;4996960;28;20208;-66
2022/05/31 03:03:28;;;;;;;1.60;1.10;;;;;;;;;;4999228;28;20923;-65
2022/05/31 03:05:56;;;;;;;0.87;0.80;;;;;;;;;;5001903;28;20226;-66
2022/05/31 03:08:28;;;;;;;1.00;0.90;;;;;;;;;;5008759;28;20223;-65
2022/05/31 03:10:56;;;;;;;1.30;0.90;;;;;;;;;;4988874;28;20196;-66
2022/05/31 03:13:25;;;;;;;0.77;0.77;;;;;;;;;;5000373;28;20196;-67
2022/05/31 03:15:56;;;;;;;1.20;0.90;;;;;;;;;;4997811;28;20196;-67
2022/05/31 03:18:25;;;;;;;1.10;1.00;;;;;;;;;;4988474;28;20204;-67
2022/05/31 03:20:55;;;;;;;6.00;0.90;;;;;;;;;;4997229;28;20200;-68
2022/05/31 03:23:26;;;;;;;6.40;1.10;;;;;;;;;;5005641;28;20191;-66
2022/05/31 03:25:53;;;;;;;2.17;1.13;;;;;;;;;;4990163;28;20243;-67
2022/05/31 03:28:23;;;;;;;1.10;0.87;;;;;;;;;;5016233;28;20901;-67
2022/05/31 03:30:54;;;;;;;1.33;1.00;;;;;;;;;;5000282;28;20218;-65
2022/05/31 03:33:28;;;;;;;1.80;1.20;;;;;;;;;;5003340;28;20187;-65
2022/05/31 03:35:59;;;;;;;1.67;0.80;;;;;;;;;;5006471;28;20266;-65
2022/05/31 03:38:30;;;;;;;2.53;0.90;;;;;;;;;;5008239;28;20208;-65
2022/05/31 03:41:00;;;;;;;1.10;1.00;;;;;;;;;;5004512;28;20196;-66
2022/05/31 03:43:33;;;;;;;1.10;1.00;;;;;;;;;;5001172;28;20220;-67
2022/05/31 03:46:05;;;;;;;2.33;1.10;;;;;;;;;;4997022;28;20266;-65
2022/05/31 03:48:37;;;;;;;1.47;1.00;;;;;;;;;;5008200;28;20215;-65
2022/05/31 03:51:12;;;;;;;1.20;1.07;;;;;;;;;;4996931;28;20200;-66
2022/05/31 03:53:42;;;;;;;1.60;1.20;;;;;;;;;;4996386;28;20216;-65
2022/05/31 03:56:14;;;;;;;1.33;1.00;;;;;;;;;;5008908;28;20201;-64
2022/05/31 03:58:44;;;;;;;1.37;1.00;;;;;;;;;;5004896;28;20212;-65
2022/05/31 04:01:14;;;;;;;1.80;1.40;;;;;;;;;;5011560;28;20203;-65
2022/05/31 04:03:43;;;;;;;2.50;1.03;;;;;;;;;;4997683;28;20195;-64
2022/05/31 04:06:14;;;;;;;1.63;1.00;;;;;;;;;;5008980;28;20275;-65
2022/05/31 04:08:56;;;;;;;1.60;1.10;;;;;;;;;;5006041;28;20227;-65
2022/05/31 04:11:28;;;;;;;2.00;1.20;;;;;;;;;;5003702;28;20271;-66
2022/05/31 04:13:56;;;;;;;1.93;1.00;;;;;;;;;;4988994;28;20204;-66
2022/05/31 04:16:28;;;;;;;2.30;1.40;;;;;;;;;;5011647;28;20207;-66
2022/05/31 04:18:59;;;;;;;1.53;1.00;;;;;;;;;;4987840;28;20210;-66
2022/05/31 04:21:30;;;;;;;1.27;1.07;;;;;;;;;;4999493;28;20743;-67
2022/05/31 04:23:59;;;;;;;2.80;1.00;;;;;;;;;;4996225;28;20208;-66
2022/05/31 04:26:33;;;;;;;1.23;1.10;;;;;;;;;;5017744;28;20216;-67
2022/05/31 04:29:02;;;;;;;1.67;1.30;;;;;;;;;;5014228;28;20575;-68
2022/05/31 04:31:35;;;;;;;4.13;1.17;;;;;;;;;;4993144;28;20210;-67
2022/05/31 04:34:06;;;;;;;1.17;1.07;;;;;;;;;;4998964;28;20273;-67
2022/05/31 04:36:38;;;;;;;1.50;1.30;;;;;;;;;;4992993;28;20192;-67
2022/05/31 04:39:08;;;;;;;1.17;1.00;;;;;;;;;;4999842;28;20309;-67
2022/05/31 04:41:40;;;;;;;1.37;1.20;;;;;;;;;;4992057;28;20200;-68
2022/05/31 04:44:10;;;;;;;1.67;1.10;;;;;;;;;;4987279;28;20239;-69
2022/05/31 04:46:37;;;;;;;3.10;1.17;;;;;;;;;;5006390;28;20203;-69
2022/05/31 04:49:06;;;;;;;2.20;1.30;;;;;;;;;;4999241;28;20220;-69
2022/05/31 04:51:38;;;;;;;1.37;0.93;;;;;;;;;;4993149;28;20227;-69
2022/05/31 04:54:10;;;;;;;1.90;1.20;;;;;;;;;;4991642;28;20210;-68
2022/05/31 04:56:39;;;;;;;1.30;1.20;;;;;;;;;;4986682;28;20208;-68
2022/05/31 04:59:07;;;;;;;1.73;1.10;;;;;;;;;;5003233;28;20605;-68
2022/05/31 05:01:38;;;;;;;1.30;1.10;;;;;;;;;;4990604;28;20580;-68
2022/05/31 05:04:10;;;;;;;1.63;1.23;;;;;;;;;;5003272;28;20195;-68
2022/05/31 05:06:46;;;;;;;1.20;1.10;;;;;;;;;;4992123;28;20262;-68
2022/05/31 05:09:17;;;;;;;1.40;1.30;;;;;;;;;;4985863;28;20224;-66
2022/05/31 05:11:53;;;;;;;2.30;1.23;;;;;;;;;;5001631;28;20195;-66
2022/05/31 05:14:22;;;;;;;3.63;1.23;;;;;;;;;;5004475;28;20199;-66
2022/05/31 05:16:50;;;;;;;4.07;1.30;;;;;;;;;;4996555;28;20211;-66
2022/05/31 05:19:21;;;;;;;4.00;1.40;;;;;;;;;;5001841;28;20358;-66
2022/05/31 05:21:49;;;;;;;2.03;1.20;;;;;;;;;;4998766;28;20192;-67
2022/05/31 05:24:19;;;;;;;1.30;1.20;;;;;;;;;;4996407;28;20636;-66
2022/05/31 05:26:51;;;;;;;1.60;1.27;;;;;;;;;;5004578;28;20196;-65
2022/05/31 05:32:13;;;;;;;2.50;1.27;;;;;;;;;;4994148;28;20314;-65
2022/05/31 05:34:45;;;;;;;1.50;1.40;;;;;;;;;;5004061;28;20203;-65
2022/05/31 05:37:16;;;;;;;2.57;1.43;;;;;;;;;;4993242;28;20215;-66
2022/05/31 05:39:52;;;;;;;2.93;1.50;;;;;;;;;;5006417;28;20195;-65
2022/05/31 05:42:23;;;;;;;3.10;1.80;;;;;;;;;;5009152;28;20220;-66
2022/05/31 05:44:52;;;;;;;3.10;1.80;;;;;;;;;;5007644;28;20311;-65
2022/05/31 05:47:22;;;;;;;4.53;2.30;;;;;;;;;;5006155;28;20285;-65
2022/05/31 05:49:55;;;;;;;42.23;14.40;;;;;;;;;;5008623;28;20680;-65
2022/05/31 05:52:23;;;;;;;27.67;9.57;;;;;;;;;;5005991;28;20216;-67
2022/05/31 05:54:51;;;;;;;20.17;7.17;;;;;;;;;;5010384;28;20200;-66
2022/05/31 05:57:18;;;;;;;21.37;8.03;;;;;;;;;;5005488;28;20234;-66
2022/05/31 05:59:47;;;;;;;23.30;8.40;;;;;;;;;;5010222;28;20231;-67
2022/05/31 06:02:22;;;;;;;23.40;7.73;;;;;;;;;;5003630;28;20235;-67
2022/05/31 06:05:32;;;;;;;17.80;6.63;;;;;;;;;;5006229;28;20200;-68
2022/05/31 06:08:07;;;;;;;17.77;6.70;;;;;;;;;;4998527;28;20210;-66
2022/05/31 06:10:45;;;;;;;19.37;6.90;;;;;;;;;;5008619;28;20550;-66
2022/05/31 06:13:15;;;;;;;18.00;5.70;;;;;;;;;;5008317;28;20210;-67
2022/05/31 06:15:48;;;;;;;13.87;6.27;;;;;;;;;;5002374;28;20258;-65
2022/05/31 06:18:22;;;;;;;17.97;6.37;;;;;;;;;;5008808;28;20204;-67
2022/05/31 06:20:55;;;;;;;15.73;5.23;;;;;;;;;;5005353;28;20218;-66
2022/05/31 06:23:23;;;;;;;15.77;5.67;;;;;;;;;;5004791;28;20235;-67
2022/05/31 06:25:52;;;;;;;14.23;5.50;;;;;;;;;;5007787;28;20203;-66
2022/05/31 06:28:24;;;;;;;14.23;5.80;;;;;;;;;;5011494;28;20188;-67
2022/05/31 06:30:53;;;;;;;12.40;5.03;;;;;;;;;;5004843;28;20196;-67
2022/05/31 06:33:25;;;;;;;12.83;5.10;;;;;;;;;;4993967;28;20220;-65
2022/05/31 06:35:59;;;;;;;14.10;5.10;;;;;;;;;;5004632;28;20206;-65
2022/05/31 06:38:31;;;;;;;8.63;4.57;;;;;;;;;;5007702;28;20350;-65
2022/05/31 06:41:01;;;;;;;12.37;4.40;;;;;;;;;;5002171;28;20207;-65
2022/05/31 06:43:29;;;;;;;8.17;4.33;;;;;;;;;;5003531;28;20865;-66
2022/05/31 06:46:04;;;;;;;9.97;4.73;;;;;;;;;;5008015;28;20208;-63
2022/05/31 06:48:32;;;;;;;10.07;4.23;;;;;;;;;;5007009;28;20224;-67
2022/05/31 06:51:04;;;;;;;18.17;5.33;;;;;;;;;;5003218;28;20199;-66
2022/05/31 06:59:15;;;;;;;30.30;9.87;;;;;;;;;;5000224;28;20587;-65
2022/05/31 07:01:48;;;;;;;24.03;9.43;;;;;;;;;;4998761;28;20231;-68
2022/05/31 07:04:18;;;;;;;29.53;8.67;;;;;;;;;;5011420;28;20210;-67
2022/05/31 07:06:50;;;;;;;23.83;8.43;;;;;;;;;;5008888;28;20287;-65
2022/05/31 07:09:19;;;;;;;24.87;8.10;;;;;;;;;;5000335;28;20223;-66
2022/05/31 07:11:49;;;;;;;14.40;6.00;;;;;;;;;;5007457;28;20691;-69
2022/05/31 07:14:20;;;;;;;14.37;5.70;;;;;;;;;;4996723;28;20674;-70
2022/05/31 07:16:49;;;;;;;12.93;5.80;;;;;;;;;;5002703;28;20188;-70
2022/05/31 07:19:17;;;;;;;18.17;5.73;;;;;;;;;;4995977;28;20196;-71
2022/05/31 07:21:47;;;;;;;13.37;5.30;;;;;;;;;;4996903;28;20199;-73
2022/05/31 07:24:17;;;;;;;9.30;4.43;;;;;;;;;;5004137;28;20560;-68
2022/05/31 07:26:51;;;;;;;8.23;4.53;;;;;;;;;;5000422;28;20207;-67
2022/05/31 07:29:20;;;;;;;9.47;4.77;;;;;;;;;;5004790;28;20231;-68
2022/05/31 07:31:52;;;;;;;11.53;4.70;;;;;;;;;;4987512;28;20224;-67
2022/05/31 07:34:44;;;;;;;7.87;4.10;;;;;;;;;;5005186;28;20188;-66
2022/05/31 07:37:15;;;;;;;7.40;4.17;;;;;;;;;;4993411;28;20205;-68
2022/05/31 07:39:48;;;;;;;8.53;3.93;;;;;;;;;;5003426;28;20200;-68
2022/05/31 07:42:21;;;;;;;8.70;4.30;;;;;;;;;;5002182;28;20237;-68
2022/05/31 07:44:54;;;;;;;6.73;3.80;;;;;;;;;;4998840;28;20219;-69
2022/05/31 07:47:25;;;;;;;6.40;3.80;;;;;;;;;;5001734;28;20207;-68
2022/05/31 07:49:56;;;;;;;5.23;3.60;;;;;;;;;;5008536;28;20735;-67
2022/05/31 07:52:28;;;;;;;6.20;3.67;;;;;;;;;;5003484;28;20976;-67
2022/05/31 07:55:01;;;;;;;4.93;3.13;;;;;;;;;;5002403;28;20208;-66
2022/05/31 08:00:22;;;;;;;5.60;3.17;;;;;;;;;;4993645;28;20205;-71
2022/05/31 08:02:52;;;;;;;4.93;3.13;;;;;;;;;;4997097;28;20743;-69
2022/05/31 08:05:24;;;;;;;6.97;3.20;;;;;;;;;;5006310;28;20208;-70
2022/05/31 08:07:52;;;;;;;5.47;3.10;;;;;;;;;;4999584;28;20274;-68
2022/05/31 08:10:42;;;;;;;5.20;3.07;;;;;;;;;;5004431;28;20219;-68
2022/05/31 08:13:11;;;;;;;3.97;2.80;;;;;;;;;;4996694;28;20192;-69
2022/05/31 08:15:40;;;;;;;4.17;3.03;;;;;;;;;;5006929;28;20198;-67
2022/05/31 08:18:11;;;;;;;5.73;3.10;;;;;;;;;;4997031;28;20191;-67
2022/05/31 08:20:44;;;;;;;4.53;3.17;;;;;;;;;;4994533;28;20208;-67
2022/05/31 08:23:17;;;;;;;5.23;2.70;;;;;;;;;;5001275;28;20243;-65
2022/05/31 08:25:44;;;;;;;4.57;3.13;;;;;;;;;;5005017;28;20871;-66
2022/05/31 08:28:11;;;;;;;5.30;3.10;;;;;;;;;;5003909;28;20724;-65
2022/05/31 08:30:38;;;;;;;3.27;2.63;;;;;;;;;;5000939;28;20208;-66
2022/05/31 08:33:06;;;;;;;2.87;2.47;;;;;;;;;;4998346;28;20212;-65
2022/05/31 08:35:36;;;;;;;3.53;2.70;;;;;;;;;;5000863;28;20195;-66
2022/05/31 08:38:28;;;;;;;4.07;2.80;;;;;;;;;;5003723;28;20199;-66
2022/05/31 08:41:01;;;;;;;6.70;2.90;;;;;;;;;;4996717;28;20259;-66
2022/05/31 08:43:55;;;;;;;3.40;2.70;;;;;;;;;;5001781;28;20223;-66
2022/05/31 08:46:58;;;;;;;4.53;2.90;;;;;;;;;;5006358;28;20583;-66
2022/05/31 08:51:52;;;;;;;4.87;2.87;;;;;;;;;;4987569;28;20237;-66
2022/05/31 08:52:23;;;;;;;3.23;2.60;;;;;;;;;;4993552;28;20219;-66
2022/05/31 08:57:52;;;;;;;4.23;2.17;;;;;;;;;;5006366;28;20234;-66
2022/05/31 09:00:29;;;;;;;3.57;2.40;;;;;;;;;;4998937;28;20259;-65
2022/05/31 09:03:07;;;;;;;3.57;2.10;;;;;;;;;;5004251;28;20239;-65
2022/05/31 09:06:05;;;;;;;4.43;2.10;;;;;;;;;;5032892;28;20195;-65
2022/05/31 09:08:32;;;;;;;5.63;2.20;;;;;;;;;;5042123;28;20233;-65
2022/05/31 09:11:18;;;;;;;6.97;2.20;;;;;;;;;;5028361;28;20226;-66
2022/05/31 09:13:54;;;;;;;7.23;2.60;;;;;;;;;;5038142;28;20187;-68
2022/05/31 09:16:24;;;;;;;2.70;2.30;;;;;;;;;;5041667;28;20486;-67
2022/05/31 09:18:57;;;;;;;3.90;2.40;;;;;;;;;;5047601;28;20232;-68
2022/05/31 09:21:38;;;;;;;3.17;2.10;;;;;;;;;;5040837;28;20210;-70
2022/05/31 09:24:15;;;;;;;4.33;1.97;;;;;;;;;;5046953;28;20274;-71
2022/05/31 09:27:05;;;;;;;3.30;2.27;;;;;;;;;;5010263;28;20202;-69
2022/05/31 09:29:53;;;;;;;2.47;1.87;;;;;;;;;;5032445;28;20226;-69
2022/05/31 09:32:29;;;;;;;2.93;2.00;;;;;;;;;;5047085;28;20601;-69
2022/05/31 09:35:04;;;;;;;2.53;2.13;;;;;;;;;;5043837;28;20222;-69
2022/05/31 09:37:36;;;;;;;2.80;2.10;;;;;;;;;;5037857;28;20206;-71
2022/05/31 09:40:22;;;;;;;2.40;2.10;;;;;;;;;;5037937;28;20255;-70
2022/05/31 09:43:09;;;;;;;2.97;2.17;;;;;;;;;;5046128;28;20213;-67
2022/05/31 09:45:46;;;;;;;2.57;2.00;;;;;;;;;;5048737;28;20237;-66
2022/05/31 09:48:18;;;;;;;2.73;2.00;;;;;;;;;;5025540;28;20186;-66
2022/05/31 09:50:49;;;;;;;4.10;1.73;;;;;;;;;;5032571;28;20210;-67
2022/05/31 09:59:04;;;;;;;2.40;1.70;;;;;;;;;;5011487;28;20284;-64
2022/05/31 10:01:41;;;;;;;3.47;2.10;;;;;;;;;;5032793;28;20228;-67
2022/05/31 10:04:11;;;;;;;2.23;1.80;;;;;;;;;;5050849;28;21420;-67
2022/05/31 10:06:55;;;;;;;2.43;1.90;;;;;;;;;;5053331;28;20571;-65
2022/05/31 10:09:37;;;;;;;3.20;2.20;;;;;;;;;;5036492;28;20223;-68
2022/05/31 10:12:15;;;;;;;2.53;1.90;;;;;;;;;;5047652;28;20199;-69
2022/05/31 10:14:48;;;;;;;2.37;1.80;;;;;;;;;;5048989;28;20229;-69
2022/05/31 10:17:34;;;;;;;2.63;1.67;;;;;;;;;;5024340;28;20198;-68
2022/05/31 10:20:19;;;;;;;2.10;1.80;;;;;;;;;;5044250;28;20219;-69
2022/05/31 10:22:49;;;;;;;3.47;1.70;;;;;;;;;;5044845;28;20202;-69
2022/05/31 10:25:28;;;;;;;3.27;1.97;;;;;;;;;;5045765;28;20194;-69
2022/05/31 10:28:01;;;;;;;2.50;1.60;;;;;;;;;;5048108;28;20624;-68
2022/05/31 10:30:36;;;;;;;2.33;1.93;;;;;;;;;;5045081;28;20222;-69
2022/05/31 10:33:05;;;;;;;2.77;1.97;;;;;;;;;;5040414;28;20540;-69
2022/05/31 10:35:37;;;;;;;2.73;2.00;;;;;;;;;;5049985;28;20264;-67
2022/05/31 10:38:25;;;;;;;3.07;1.90;;;;;;;;;;5046164;28;20589;-67
2022/05/31 10:41:04;;;;;;;2.17;1.70;;;;;;;;;;5044092;28;20194;-67
2022/05/31 10:43:43;;;;;;;2.93;1.80;;;;;;;;;;5022202;28;20253;-65
2022/05/31 10:46:19;;;;;;;1.83;1.67;;;;;;;;;;5049405;28;20202;-65
2022/05/31 10:48:52;;;;;;;2.50;1.80;;;;;;;;;;5041938;28;20198;-66
2022/05/31 10:51:39;;;;;;;3.13;1.70;;;;;;;;;;5026229;28;20218;-66
2022/05/31 10:54:29;;;;;;;3.20;1.70;;;;;;;;;;5049931;28;20284;-65
2022/05/31 10:57:16;;;;;;;2.23;1.77;;;;;;;;;;5052176;28;20198;-69
2022/05/31 10:59:54;;;;;;;2.17;1.80;;;;;;;;;;5028201;28;20248;-69
2022/05/31 11:02:40;;;;;;;4.27;2.00;;;;;;;;;;5047157;28;20695;-70
2022/05/31 11:05:14;;;;;;;2.63;1.97;;;;;;;;;;5020558;28;20206;-73
2022/05/31 11:13:49;;;;;;;2.40;2.17;;;;;;;;;;5035863;28;20529;-67
2022/05/31 11:16:39;;;;;;;5.07;1.90;;;;;;;;;;5041557;28;20576;-67
2022/05/31 11:19:24;;;;;;;2.53;1.80;;;;;;;;;;5025549;28;20203;-67
2022/05/31 11:22:12;;;;;;;2.70;1.83;;;;;;;;;;5043947;28;20210;-69
2022/05/31 11:24:46;;;;;;;1.77;1.50;;;;;;;;;;5035001;28;20198;-69
2022/05/31 11:27:43;;;;;;;2.43;1.57;;;;;;;;;;5053639;28;20539;-67
2022/05/31 11:30:25;;;;;;;2.20;1.73;;;;;;;;;;5043596;28;20225;-67
2022/05/31 11:33:15;;;;;;;3.07;1.50;;;;;;;;;;5041242;28;20209;-68
2022/05/31 11:35:56;;;;;;;3.17;1.70;;;;;;;;;;5042424;28;20728;-69
2022/05/31 11:38:44;;;;;;;2.57;2.00;;;;;;;;;;5046422;28;20191;-68
2022/05/31 11:41:37;;;;;;;2.10;2.00;;;;;;;;;;5042389;28;20624;-69
2022/05/31 11:44:33;;;;;;;1.97;1.77;;;;;;;;;;5036801;28;20858;-70
2022/05/31 11:47:18;;;;;;;4.07;2.27;;;;;;;;;;5043882;28;20211;-68
2022/05/31 11:49:54;;;;;;;4.70;2.30;;;;;;;;;;5034963;28;20202;-67
2022/05/31 11:52:30;;;;;;;2.93;2.10;;;;;;;;;;5043149;28;20197;-67
2022/05/31 11:55:31;;;;;;;9.60;2.27;;;;;;;;;;5045801;28;20201;-67
2022/05/31 11:58:15;;;;;;;8.13;2.30;;;;;;;;;;5045562;28;20201;-70
2022/05/31 12:00:54;;;;;;;3.77;2.27;;;;;;;;;;5046865;28;20197;-64
2022/05/31 12:03:27;;;;;;;6.03;2.50;;;;;;;;;;5023871;28;20644;-65
2022/05/31 12:05:58;;;;;;;2.37;2.07;;;;;;;;;;5047983;28;20674;-65
2022/05/31 12:08:36;;;;;;;7.50;2.77;;;;;;;;;;5030732;28;20215;-69
2022/05/31 12:11:11;;;;;;;3.53;2.33;;;;;;;;;;5035580;28;20696;-67
2022/05/31 12:13:44;;;;;;;3.47;2.87;;;;;;;;;;5024400;28;20194;-65
2022/05/31 12:16:20;;;;;;;3.43;2.70;;;;;;;;;;5009219;28;20190;-68
2022/05/31 12:19:02;;;;;;;3.07;2.77;;;;;;;;;;5030891;28;20198;-69
2022/05/31 12:21:46;;;;;;;3.37;2.10;;;;;;;;;;5040367;28;20223;-68
2022/05/31 12:24:21;;;;;;;2.20;2.00;;;;;;;;;;5031791;28;20201;-68
2022/05/31 12:27:08;;;;;;;3.97;2.47;;;;;;;;;;5045041;28;20249;-68
2022/05/31 12:29:56;;;;;;;6.60;1.73;;;;;;;;;;5037039;28;20288;-68
2022/05/31 12:32:29;;;;;;;3.20;2.30;;;;;;;;;;5033512;28;20221;-68
2022/05/31 12:34:58;;;;;;;3.63;2.00;;;;;;;;;;5043548;28;20187;-67
2022/05/31 12:37:53;;;;;;;2.27;1.93;;;;;;;;;;5046183;28;20883;-68
2022/05/31 12:40:27;;;;;;;5.13;2.10;;;;;;;;;;5033179;28;20628;-67
2022/05/31 12:42:58;;;;;;;2.83;2.10;;;;;;;;;;5045825;28;20197;-66
2022/05/31 12:45:26;;;;;;;3.97;2.10;;;;;;;;;;5037727;28;20249;-65
2022/05/31 12:48:00;;;;;;;3.00;1.83;;;;;;;;;;5041903;28;20202;-65
2022/05/31 12:50:47;;;;;;;2.47;2.00;;;;;;;;;;5024946;28;20255;-72
2022/05/31 12:53:26;;;;;;;5.27;2.07;;;;;;;;;;5039671;28;20202;-67
2022/05/31 12:55:57;;;;;;;3.37;2.13;;;;;;;;;;5035970;28;20199;-67
2022/05/31 12:58:33;;;;;;;2.50;2.00;;;;;;;;;;5026773;28;20217;-67
2022/05/31 13:01:13;;;;;;;4.97;2.20;;;;;;;;;;5037859;28;20291;-67
2022/05/31 13:03:50;;;;;;;3.50;1.80;;;;;;;;;;5038491;28;20201;-66
2022/05/31 13:06:24;;;;;;;1.53;1.43;;;;;;;;;;5024581;28;20509;-66
2022/05/31 13:09:15;;;;;;;2.73;1.87;;;;;;;;;;5041733;28;20218;-66
2022/05/31 13:20:39;;;;;;;3.73;2.20;;;;;;;;;;4960369;28;20635;-64
2022/05/31 13:23:24;;;;;;;2.27;2.07;;;;;;;;;;4967543;28;20192;-64
2022/05/31 13:25:53;;;;;;;4.83;2.20;;;;;;;;;;5041710;28;20198;-64
2022/05/31 13:28:25;;;;;;;4.13;2.23;;;;;;;;;;5034458;28;20396;-66
2022/05/31 13:30:56;;;;;;;2.77;2.17;;;;;;;;;;5032035;28;21126;-68
2022/05/31 13:33:27;;;;;;;3.40;2.43;;;;;;;;;;5036512;28;20802;-68
2022/05/31 13:36:03;;;;;;;4.20;2.60;;;;;;;;;;5032265;28;20197;-67
2022/05/31 13:38:43;;;;;;;2.73;2.40;;;;;;;;;;5026034;28;20476;-69
2022/05/31 13:41:15;;;;;;;3.93;2.50;;;;;;;;;;5039018;28;20197;-68
2022/05/31 13:43:53;;;;;;;3.53;2.90;;;;;;;;;;5023382;28;20226;-70
2022/05/31 13:46:29;;;;;;;3.03;2.50;;;;;;;;;;5045158;28;20629;-69
2022/05/31 13:49:05;;;;;;;3.60;2.73;;;;;;;;;;5045982;28;20205;-70
2022/05/31 13:51:35;;;;;;;3.63;2.27;;;;;;;;;;5047672;28;20754;-70
2022/05/31 13:54:08;;;;;;;3.87;1.87;;;;;;;;;;5042249;28;20735;-67
2022/05/31 13:56:37;;;;;;;4.10;2.27;;;;;;;;;;5003642;28;20219;-66
2022/05/31 13:59:08;;;;;;;3.20;2.60;;;;;;;;;;5030337;28;20199;-64
2022/05/31 14:01:41;;;;;;;3.73;2.40;;;;;;;;;;5044426;28;20237;-69
2022/05/31 14:04:22;;;;;;;3.40;2.70;;;;;;;;;;5017620;28;20236;-69
2022/05/31 14:06:51;;;;;;;2.47;2.27;;;;;;;;;;5047543;28;20540;-68
2022/05/31 14:09:26;;;;;;;2.70;2.50;;;;;;;;;;5033911;28;20242;-69
2022/05/31 14:12:00;;;;;;;3.70;2.40;;;;;;;;;;5035840;28;20217;-66
2022/05/31 14:14:39;;;;;;;5.07;2.77;;;;;;;;;;5026931;28;20195;-63
2022/05/31 14:17:06;;;;;;;3.30;3.00;;;;;;;;;;5038268;28;20201;-64
2022/05/31 14:19:39;;;;;;;3.97;3.40;;;;;;;;;;5036544;28;20272;-63
2022/05/31 14:22:24;;;;;;;3.73;2.90;;;;;;;;;;5038032;28;20670;-65
2022/05/31 14:25:02;;;;;;;4.13;3.10;;;;;;;;;;5039961;28;20210;-64
2022/05/31 14:27:29;;;;;;;3.00;2.70;;;;;;;;;;5033310;28;20801;-69
2022/05/31 14:30:06;;;;;;;3.47;2.90;;;;;;;;;;5036674;28;20641;-69
2022/05/31 14:32:35;;;;;;;3.40;3.10;;;;;;;;;;5037794;28;20723;-69
2022/05/31 14:35:23;;;;;;;6.03;3.30;;;;;;;;;;5039386;28;20198;-66
2022/05/31 14:38:00;;;;;;;3.70;3.40;;;;;;;;;;5042255;28;20190;-67
2022/05/31 14:40:37;;;;;;;3.97;3.47;;;;;;;;;;5040211;28;20632;-66
2022/05/31 14:43:14;;;;;;;7.93;3.40;;;;;;;;;;5044049;28;20191;-65
2022/05/31 14:45:49;;;;;;;3.67;3.37;;;;;;;;;;5048442;28;20194;-67
2022/05/31 14:48:43;;;;;;;4.53;3.20;;;;;;;;;;5030166;28;20205;-67
2022/05/31 14:51:18;;;;;;;3.23;2.90;;;;;;;;;;5042261;28;20203;-65
2022/05/31 14:53:46;;;;;;;3.40;3.10;;;;;;;;;;5045545;28;20217;-64
2022/05/31 14:56:20;;;;;;;3.43;2.90;;;;;;;;;;5039613;28;20336;-65
2022/05/31 14:58:47;;;;;;;3.17;2.50;;;;;;;;;;5048294;28;20632;-65
2022/05/31 15:01:16;;;;;;;3.30;2.43;;;;;;;;;;5042988;28;20601;-64
2022/05/31 15:03:58;;;;;;;5.13;2.60;;;;;;;;;;5047142;28;20214;-64
2022/05/31 15:06:28;;;;;;;3.03;2.63;;;;;;;;;;5042141;28;20206;-64
2022/05/31 15:09:02;;;;;;;4.10;2.50;;;;;;;;;;5044009;28;20206;-64
2022/05/31 15:19:49;;;;;;;3.70;2.83;;;;;;;;;;5045844;28;20202;-64
2022/05/31 15:22:19;;;;;;;3.37;2.97;;;;;;;;;;5048031;28;20203;-67
2022/05/31 15:24:48;;;;;;;3.57;3.17;;;;;;;;;;5050444;28;20199;-66
2022/05/31 15:27:22;;;;;;;4.67;3.37;;;;;;;;;;5039177;28;20199;-67
2022/05/31 15:29:55;;;;;;;3.70;3.20;;;;;;;;;;5033899;28;20617;-66
2022/05/31 15:32:29;;;;;;;3.93;2.60;;;;;;;;;;5047542;28;20232;-66
2022/05/31 15:34:56;;;;;;;3.30;3.00;;;;;;;;;;5048138;28;20617;-66
2022/05/31 15:37:26;;;;;;;2.80;2.60;;;;;;;;;;5042671;28;20979;-66
2022/05/31 15:39:54;;;;;;;3.27;2.90;;;;;;;;;;5042080;28;20206;-66
2022/05/31 15:42:22;;;;;;;3.47;2.93;;;;;;;;;;5047474;28;20692;-66
2022/05/31 15:44:50;;;;;;;3.87;3.00;;;;;;;;;;5042688;28;20214;-66
2022/05/31 15:47:21;;;;;;;3.77;3.13;;;;;;;;;;5044308;28;20292;-66
2022/05/31 15:50:04;;;;;;;3.50;3.20;;;;;;;;;;5033648;28;20307;-66
2022/05/31 15:52:47;;;;;;;3.90;3.50;;;;;;;;;;5028896;28;20289;-66
2022/05/31 15:55:19;;;;;;;4.47;3.20;;;;;;;;;;5034563;28;20198;-66
2022/05/31 15:57:52;;;;;;;4.33;3.13;;;;;;;;;;5044558;28;20198;-66
2022/05/31 16:00:24;;;;;;;3.37;3.07;;;;;;;;;;5026637;28;20202;-66
2022/05/31 16:02:54;;;;;;;4.10;3.17;;;;;;;;;;5027776;28;20364;-66
2022/05/31 16:05:21;;;;;;;3.97;3.50;;;;;;;;;;5043186;28;20209;-66
2022/05/31 16:07:53;;;;;;;3.67;3.37;;;;;;;;;;5038462;28;20206;-66